sensor_id;sensor_type;location;lat;lon;timestamp;temperature;humidity
18067;DHT22;9158;51.528;7.192;2023-05-07T00:00:28;14.70;99.90
18067;DHT22;9158;51.528;7.192;2023-05-07T00:00:59;14.70;99.90
18067;DHT22;9158;51.528;7.192;2023-05-07T00:01:31;14.60;99.90
18067;DHT22;9158;51.528;7.192;2023-05-07T00:02:02;14.60;99.90
18067;DHT22;9158;51.528;7.192;2023-05-07T00:02:34;14.60;99.90
18067;DHT22;9158;51.528;7.192;2023-05-07T00:03:06;14.60;99.90
18067;DHT22;9158;51.528;7.192;2023-05-07T00:03:37;14.60;99.90
18067;DHT22;9158;51.528;7.192;2023-05-07T00:04:08;14.60;99.90
18067;DHT22;9158;51.528;7.192;2023-05-07T00:04:40;14.50;99.90
18067;DHT22;9158;51.528;7.192;2023-05-07T00:05:42;14.50;99.90
18067;DHT22;9158;51.528;7.192;2023-05-07T00:06:14;14.50;99.90
18067;DHT22;9158;51.528;7.192;2023-05-07T00:06:45;14.50;99.90
18067;DHT22;9158;51.528;7.192;2023-05-07T00:07:16;14.50;99.90
18067;DHT22;9158;51.528;7.192;2023-05-07T00:07:48;14.50;99.90
18067;DHT22;9158;51.528;7.192;2023-05-07T00:08:19;14.60;99.90
18067;DHT22;9158;51.528;7.192;2023-05-07T00:08:51;14.60;99.90
18067;DHT22;9158;51.528;7.192;2023-05-07T00:09:23;14.60;99.90
18067;DHT22;9158;51.528;7.192;2023-05-07T00:09:53;14.60;99.90
18067;DHT22;9158;51.528;7.192;2023-05-07T00:10:25;14.70;99.90
18067;DHT22;9158;51.528;7.192;2023-05-07T00:10:58;14.70;99.90
18067;DHT22;9158;51.528;7.192;2023-05-07T00:11:30;14.70;99.90
18067;DHT22;9158;51.528;7.192;2023-05-07T00:12:01;14.70;99.90
18067;DHT22;9158;51.528;7.192;2023-05-07T00:12:33;14.70;99.90
18067;DHT22;9158;51.528;7.192;2023-05-07T00:13:04;14.70;99.90
18067;DHT22;9158;51.528;7.192;2023-05-07T00:13:35;14.80;99.90
18067;DHT22;9158;51.528;7.192;2023-05-07T00:14:07;14.80;99.90
18067;DHT22;9158;51.528;7.192;2023-05-07T00:14:38;14.80;99.90
18067;DHT22;9158;51.528;7.192;2023-05-07T00:15:09;14.80;99.90
18067;DHT22;9158;51.528;7.192;2023-05-07T00:15:41;14.80;99.90
18067;DHT22;9158;51.528;7.192;2023-05-07T00:16:12;14.70;99.90
18067;DHT22;9158;51.528;7.192;2023-05-07T00:16:43;14.60;99.90
18067;DHT22;9158;51.528;7.192;2023-05-07T00:17:15;14.70;99.90
18067;DHT22;9158;51.528;7.192;2023-05-07T00:17:46;14.60;99.90
18067;DHT22;9158;51.528;7.192;2023-05-07T00:18:17;14.60;99.90
18067;DHT22;9158;51.528;7.192;2023-05-07T00:18:52;14.60;99.90
18067;DHT22;9158;51.528;7.192;2023-05-07T00:19:24;14.60;99.90
18067;DHT22;9158;51.528;7.192;2023-05-07T00:19:55;14.50;99.90
18067;DHT22;9158;51.528;7.192;2023-05-07T00:20:26;14.50;99.90
18067;DHT22;9158;51.528;7.192;2023-05-07T00:20:58;14.50;99.90
18067;DHT22;9158;51.528;7.192;2023-05-07T00:21:28;14.50;99.90
18067;DHT22;9158;51.528;7.192;2023-05-07T00:22:01;14.50;99.90
18067;DHT22;9158;51.528;7.192;2023-05-07T00:22:32;14.40;99.90
18067;DHT22;9158;51.528;7.192;2023-05-07T00:23:03;14.40;99.90
18067;DHT22;9158;51.528;7.192;2023-05-07T00:23:35;14.40;99.90
18067;DHT22;9158;51.528;7.192;2023-05-07T00:24:06;14.40;99.90
18067;DHT22;9158;51.528;7.192;2023-05-07T00:24:37;14.30;99.90
18067;DHT22;9158;51.528;7.192;2023-05-07T00:25:08;14.40;99.90
18067;DHT22;9158;51.528;7.192;2023-05-07T00:25:40;14.40;99.90
18067;DHT22;9158;51.528;7.192;2023-05-07T00:26:13;14.40;99.90
18067;DHT22;9158;51.528;7.192;2023-05-07T00:26:45;14.40;99.90
18067;DHT22;9158;51.528;7.192;2023-05-07T00:27:16;14.40;99.90
18067;DHT22;9158;51.528;7.192;2023-05-07T00:27:47;14.40;99.90
18067;DHT22;9158;51.528;7.192;2023-05-07T00:28:18;14.40;99.90
18067;DHT22;9158;51.528;7.192;2023-05-07T00:28:50;14.30;99.90
18067;DHT22;9158;51.528;7.192;2023-05-07T00:29:21;14.40;99.90
18067;DHT22;9158;51.528;7.192;2023-05-07T00:29:52;14.40;99.90
18067;DHT22;9158;51.528;7.192;2023-05-07T00:30:24;14.40;99.90
18067;DHT22;9158;51.528;7.192;2023-05-07T00:30:55;14.50;99.90
18067;DHT22;9158;51.528;7.192;2023-05-07T00:31:26;14.50;99.90
18067;DHT22;9158;51.528;7.192;2023-05-07T00:31:58;14.50;99.90
18067;DHT22;9158;51.528;7.192;2023-05-07T00:32:29;14.50;99.90
18067;DHT22;9158;51.528;7.192;2023-05-07T00:33:00;14.40;99.90
18067;DHT22;9158;51.528;7.192;2023-05-07T00:33:32;14.50;99.90
18067;DHT22;9158;51.528;7.192;2023-05-07T00:34:03;14.50;99.90
18067;DHT22;9158;51.528;7.192;2023-05-07T00:34:34;14.50;99.90
18067;DHT22;9158;51.528;7.192;2023-05-07T00:35:07;14.50;99.90
18067;DHT22;9158;51.528;7.192;2023-05-07T00:35:38;14.50;99.90
18067;DHT22;9158;51.528;7.192;2023-05-07T00:36:09;14.40;99.90
18067;DHT22;9158;51.528;7.192;2023-05-07T00:36:40;14.40;99.90
18067;DHT22;9158;51.528;7.192;2023-05-07T00:37:12;14.50;99.90
18067;DHT22;9158;51.528;7.192;2023-05-07T00:37:43;14.40;99.90
18067;DHT22;9158;51.528;7.192;2023-05-07T00:38:14;14.40;99.90
18067;DHT22;9158;51.528;7.192;2023-05-07T00:38:46;14.40;99.90
18067;DHT22;9158;51.528;7.192;2023-05-07T00:39:17;14.40;99.90
18067;DHT22;9158;51.528;7.192;2023-05-07T00:39:48;14.40;99.90
18067;DHT22;9158;51.528;7.192;2023-05-07T00:40:20;14.40;99.90
18067;DHT22;9158;51.528;7.192;2023-05-07T00:40:51;14.40;99.90
18067;DHT22;9158;51.528;7.192;2023-05-07T00:41:23;14.40;99.90
18067;DHT22;9158;51.528;7.192;2023-05-07T00:41:55;14.40;99.90
18067;DHT22;9158;51.528;7.192;2023-05-07T00:42:26;14.40;99.90
18067;DHT22;9158;51.528;7.192;2023-05-07T00:42:58;14.40;99.90
18067;DHT22;9158;51.528;7.192;2023-05-07T00:43:30;14.50;99.90
18067;DHT22;9158;51.528;7.192;2023-05-07T00:44:01;14.40;99.90
18067;DHT22;9158;51.528;7.192;2023-05-07T00:45:06;14.40;99.90
18067;DHT22;9158;51.528;7.192;2023-05-07T00:45:38;14.40;99.90
18067;DHT22;9158;51.528;7.192;2023-05-07T00:46:09;14.30;99.90
18067;DHT22;9158;51.528;7.192;2023-05-07T00:46:42;14.30;99.90
18067;DHT22;9158;51.528;7.192;2023-05-07T00:47:13;14.30;99.90
18067;DHT22;9158;51.528;7.192;2023-05-07T00:47:45;14.40;99.90
18067;DHT22;9158;51.528;7.192;2023-05-07T00:48:16;14.40;99.90
18067;DHT22;9158;51.528;7.192;2023-05-07T00:48:48;14.40;99.90
18067;DHT22;9158;51.528;7.192;2023-05-07T00:49:20;14.40;99.90
18067;DHT22;9158;51.528;7.192;2023-05-07T00:49:52;14.40;99.90
18067;DHT22;9158;51.528;7.192;2023-05-07T00:50:24;14.40;99.90
18067;DHT22;9158;51.528;7.192;2023-05-07T00:50:56;14.40;99.90
18067;DHT22;9158;51.528;7.192;2023-05-07T00:51:28;14.40;99.90
18067;DHT22;9158;51.528;7.192;2023-05-07T00:52:00;14.40;99.90
18067;DHT22;9158;51.528;7.192;2023-05-07T00:52:32;14.40;99.90
18067;DHT22;9158;51.528;7.192;2023-05-07T00:53:03;14.50;99.90
18067;DHT22;9158;51.528;7.192;2023-05-07T00:53:35;14.50;99.90
18067;DHT22;9158;51.528;7.192;2023-05-07T00:54:07;14.40;99.90
18067;DHT22;9158;51.528;7.192;2023-05-07T00:54:40;14.40;99.90
18067;DHT22;9158;51.528;7.192;2023-05-07T00:55:11;14.40;99.90
18067;DHT22;9158;51.528;7.192;2023-05-07T00:55:45;14.40;99.90
18067;DHT22;9158;51.528;7.192;2023-05-07T00:56:16;14.30;99.90
18067;DHT22;9158;51.528;7.192;2023-05-07T00:56:48;14.40;99.90
18067;DHT22;9158;51.528;7.192;2023-05-07T00:57:21;14.40;99.90
18067;DHT22;9158;51.528;7.192;2023-05-07T00:57:52;14.40;99.90
18067;DHT22;9158;51.528;7.192;2023-05-07T00:58:24;14.40;99.90
18067;DHT22;9158;51.528;7.192;2023-05-07T00:58:56;14.40;99.90
18067;DHT22;9158;51.528;7.192;2023-05-07T00:59:27;14.40;99.90
18067;DHT22;9158;51.528;7.192;2023-05-07T00:59:58;14.40;99.90
18067;DHT22;9158;51.528;7.192;2023-05-07T01:00:30;14.40;99.90
18067;DHT22;9158;51.528;7.192;2023-05-07T01:01:01;14.30;99.90
18067;DHT22;9158;51.528;7.192;2023-05-07T01:01:32;14.30;99.90
18067;DHT22;9158;51.528;7.192;2023-05-07T01:02:05;14.30;99.90
18067;DHT22;9158;51.528;7.192;2023-05-07T01:02:37;14.30;99.90
18067;DHT22;9158;51.528;7.192;2023-05-07T01:03:08;14.30;99.90
18067;DHT22;9158;51.528;7.192;2023-05-07T01:03:40;14.30;99.90
18067;DHT22;9158;51.528;7.192;2023-05-07T01:04:11;14.30;99.90
18067;DHT22;9158;51.528;7.192;2023-05-07T01:04:42;14.30;99.90
18067;DHT22;9158;51.528;7.192;2023-05-07T01:05:16;14.30;99.90
18067;DHT22;9158;51.528;7.192;2023-05-07T01:05:48;14.30;99.90
18067;DHT22;9158;51.528;7.192;2023-05-07T01:06:21;14.40;99.90
18067;DHT22;9158;51.528;7.192;2023-05-07T01:06:55;14.40;99.90
18067;DHT22;9158;51.528;7.192;2023-05-07T01:07:27;14.40;99.90
18067;DHT22;9158;51.528;7.192;2023-05-07T01:07:59;14.40;99.90
18067;DHT22;9158;51.528;7.192;2023-05-07T01:08:32;14.30;99.90
18067;DHT22;9158;51.528;7.192;2023-05-07T01:09:05;14.30;99.90
18067;DHT22;9158;51.528;7.192;2023-05-07T01:09:36;14.30;99.90
18067;DHT22;9158;51.528;7.192;2023-05-07T01:10:09;14.30;99.90
18067;DHT22;9158;51.528;7.192;2023-05-07T01:10:41;14.30;99.90
18067;DHT22;9158;51.528;7.192;2023-05-07T01:11:13;14.30;99.90
18067;DHT22;9158;51.528;7.192;2023-05-07T01:11:47;14.30;99.90
18067;DHT22;9158;51.528;7.192;2023-05-07T01:12:20;14.30;99.90
18067;DHT22;9158;51.528;7.192;2023-05-07T01:12:51;14.30;99.90
18067;DHT22;9158;51.528;7.192;2023-05-07T01:13:58;14.30;99.90
18067;DHT22;9158;51.528;7.192;2023-05-07T01:14:30;14.30;99.90
18067;DHT22;9158;51.528;7.192;2023-05-07T01:15:04;14.30;99.90
18067;DHT22;9158;51.528;7.192;2023-05-07T01:15:37;14.30;99.90
18067;DHT22;9158;51.528;7.192;2023-05-07T01:16:09;14.40;99.90
18067;DHT22;9158;51.528;7.192;2023-05-07T01:16:40;14.40;99.90
18067;DHT22;9158;51.528;7.192;2023-05-07T01:17:13;14.40;99.90
18067;DHT22;9158;51.528;7.192;2023-05-07T01:17:44;14.40;99.90
18067;DHT22;9158;51.528;7.192;2023-05-07T01:18:27;14.40;99.90
18067;DHT22;9158;51.528;7.192;2023-05-07T01:19:01;14.40;99.90
18067;DHT22;9158;51.528;7.192;2023-05-07T01:19:32;14.40;99.90
18067;DHT22;9158;51.528;7.192;2023-05-07T01:20:05;14.40;99.90
18067;DHT22;9158;51.528;7.192;2023-05-07T01:21:11;14.40;99.90
18067;DHT22;9158;51.528;7.192;2023-05-07T01:21:46;14.50;99.90
18067;DHT22;9158;51.528;7.192;2023-05-07T01:22:28;14.50;99.90
18067;DHT22;9158;51.528;7.192;2023-05-07T01:23:01;14.50;99.90
18067;DHT22;9158;51.528;7.192;2023-05-07T01:23:33;14.40;99.90
18067;DHT22;9158;51.528;7.192;2023-05-07T01:24:07;14.50;99.90
18067;DHT22;9158;51.528;7.192;2023-05-07T01:24:38;14.50;99.90
18067;DHT22;9158;51.528;7.192;2023-05-07T01:25:10;14.50;99.90
18067;DHT22;9158;51.528;7.192;2023-05-07T01:25:51;14.50;99.90
18067;DHT22;9158;51.528;7.192;2023-05-07T01:26:22;14.50;99.90
18067;DHT22;9158;51.528;7.192;2023-05-07T01:27:26;14.50;99.90
18067;DHT22;9158;51.528;7.192;2023-05-07T01:27:57;14.50;99.90
18067;DHT22;9158;51.528;7.192;2023-05-07T01:28:33;14.50;99.90
18067;DHT22;9158;51.528;7.192;2023-05-07T01:29:06;14.50;99.90
18067;DHT22;9158;51.528;7.192;2023-05-07T01:29:37;14.50;99.90
18067;DHT22;9158;51.528;7.192;2023-05-07T01:30:09;14.50;99.90
18067;DHT22;9158;51.528;7.192;2023-05-07T01:30:42;14.50;99.90
18067;DHT22;9158;51.528;7.192;2023-05-07T01:31:16;14.50;99.90
18067;DHT22;9158;51.528;7.192;2023-05-07T01:31:49;14.50;99.90
18067;DHT22;9158;51.528;7.192;2023-05-07T01:32:31;14.50;99.90
18067;DHT22;9158;51.528;7.192;2023-05-07T01:33:06;14.50;99.90
18067;DHT22;9158;51.528;7.192;2023-05-07T01:33:40;14.50;99.90
18067;DHT22;9158;51.528;7.192;2023-05-07T01:34:14;14.50;99.90
18067;DHT22;9158;51.528;7.192;2023-05-07T01:34:47;14.50;99.90
18067;DHT22;9158;51.528;7.192;2023-05-07T01:35:23;14.50;99.90
18067;DHT22;9158;51.528;7.192;2023-05-07T01:35:56;14.50;99.90
18067;DHT22;9158;51.528;7.192;2023-05-07T01:36:29;14.30;99.90
18067;DHT22;9158;51.528;7.192;2023-05-07T01:37:35;14.50;99.90
18067;DHT22;9158;51.528;7.192;2023-05-07T01:38:07;14.50;99.90
18067;DHT22;9158;51.528;7.192;2023-05-07T01:38:39;14.50;99.90
18067;DHT22;9158;51.528;7.192;2023-05-07T01:39:11;14.50;99.90
18067;DHT22;9158;51.528;7.192;2023-05-07T01:39:43;14.50;99.90
18067;DHT22;9158;51.528;7.192;2023-05-07T01:40:15;14.50;99.90
18067;DHT22;9158;51.528;7.192;2023-05-07T01:40:47;14.50;99.90
18067;DHT22;9158;51.528;7.192;2023-05-07T01:41:19;14.50;99.90
18067;DHT22;9158;51.528;7.192;2023-05-07T01:41:51;14.50;99.90
18067;DHT22;9158;51.528;7.192;2023-05-07T01:42:23;14.50;99.90
18067;DHT22;9158;51.528;7.192;2023-05-07T01:42:54;14.50;99.90
18067;DHT22;9158;51.528;7.192;2023-05-07T01:43:26;14.50;99.90
18067;DHT22;9158;51.528;7.192;2023-05-07T01:43:59;14.50;99.90
18067;DHT22;9158;51.528;7.192;2023-05-07T01:44:31;14.50;99.90
18067;DHT22;9158;51.528;7.192;2023-05-07T01:45:03;14.50;99.90
18067;DHT22;9158;51.528;7.192;2023-05-07T01:46:06;14.50;99.90
18067;DHT22;9158;51.528;7.192;2023-05-07T01:46:40;14.50;99.90
18067;DHT22;9158;51.528;7.192;2023-05-07T01:47:12;14.50;99.90
18067;DHT22;9158;51.528;7.192;2023-05-07T01:47:44;14.50;99.90
18067;DHT22;9158;51.528;7.192;2023-05-07T01:48:17;14.50;99.90
18067;DHT22;9158;51.528;7.192;2023-05-07T01:48:50;14.50;99.90
18067;DHT22;9158;51.528;7.192;2023-05-07T01:49:21;14.50;99.90
18067;DHT22;9158;51.528;7.192;2023-05-07T01:49:53;14.50;99.90
18067;DHT22;9158;51.528;7.192;2023-05-07T01:50:25;14.50;99.90
18067;DHT22;9158;51.528;7.192;2023-05-07T01:50:56;14.50;99.90
18067;DHT22;9158;51.528;7.192;2023-05-07T01:51:28;14.50;99.90
18067;DHT22;9158;51.528;7.192;2023-05-07T01:52:00;14.50;99.90
18067;DHT22;9158;51.528;7.192;2023-05-07T01:52:31;14.60;99.90
18067;DHT22;9158;51.528;7.192;2023-05-07T01:53:05;14.60;99.90
18067;DHT22;9158;51.528;7.192;2023-05-07T01:53:36;14.60;99.90
18067;DHT22;9158;51.528;7.192;2023-05-07T01:54:07;14.60;99.90
18067;DHT22;9158;51.528;7.192;2023-05-07T01:54:39;14.60;99.90
18067;DHT22;9158;51.528;7.192;2023-05-07T01:55:10;14.60;99.90
18067;DHT22;9158;51.528;7.192;2023-05-07T01:55:41;14.50;99.90
18067;DHT22;9158;51.528;7.192;2023-05-07T01:56:14;14.50;99.90
18067;DHT22;9158;51.528;7.192;2023-05-07T01:56:46;14.50;99.90
18067;DHT22;9158;51.528;7.192;2023-05-07T01:57:18;14.60;99.90
18067;DHT22;9158;51.528;7.192;2023-05-07T01:57:50;14.60;99.90
18067;DHT22;9158;51.528;7.192;2023-05-07T01:58:21;14.60;99.90
18067;DHT22;9158;51.528;7.192;2023-05-07T01:58:52;14.60;99.90
18067;DHT22;9158;51.528;7.192;2023-05-07T01:59:24;14.60;99.90
18067;DHT22;9158;51.528;7.192;2023-05-07T01:59:55;14.60;99.90
18067;DHT22;9158;51.528;7.192;2023-05-07T02:00:26;14.60;99.90
18067;DHT22;9158;51.528;7.192;2023-05-07T02:01:00;14.60;99.90
18067;DHT22;9158;51.528;7.192;2023-05-07T02:01:31;14.60;99.90
18067;DHT22;9158;51.528;7.192;2023-05-07T02:02:02;14.60;99.90
18067;DHT22;9158;51.528;7.192;2023-05-07T02:02:36;14.60;99.90
18067;DHT22;9158;51.528;7.192;2023-05-07T02:03:09;14.60;99.90
18067;DHT22;9158;51.528;7.192;2023-05-07T02:03:50;14.70;99.90
18067;DHT22;9158;51.528;7.192;2023-05-07T02:04:27;14.70;99.90
18067;DHT22;9158;51.528;7.192;2023-05-07T02:04:59;14.60;99.90
18067;DHT22;9158;51.528;7.192;2023-05-07T02:05:29;14.60;99.90
18067;DHT22;9158;51.528;7.192;2023-05-07T02:06:14;14.50;99.90
18067;DHT22;9158;51.528;7.192;2023-05-07T02:06:45;14.50;99.90
18067;DHT22;9158;51.528;7.192;2023-05-07T02:07:17;14.50;99.90
18067;DHT22;9158;51.528;7.192;2023-05-07T02:07:49;14.40;99.90
18067;DHT22;9158;51.528;7.192;2023-05-07T02:08:22;14.40;99.90
18067;DHT22;9158;51.528;7.192;2023-05-07T02:08:53;14.40;99.90
18067;DHT22;9158;51.528;7.192;2023-05-07T02:09:25;14.40;99.90
18067;DHT22;9158;51.528;7.192;2023-05-07T02:09:56;14.40;99.90
18067;DHT22;9158;51.528;7.192;2023-05-07T02:10:27;14.40;99.90
18067;DHT22;9158;51.528;7.192;2023-05-07T02:10:59;14.40;99.90
18067;DHT22;9158;51.528;7.192;2023-05-07T02:11:30;14.40;99.90
18067;DHT22;9158;51.528;7.192;2023-05-07T02:12:01;14.40;99.90
18067;DHT22;9158;51.528;7.192;2023-05-07T02:12:33;14.40;99.90
18067;DHT22;9158;51.528;7.192;2023-05-07T02:13:36;14.40;99.90
18067;DHT22;9158;51.528;7.192;2023-05-07T02:14:07;14.40;99.90
18067;DHT22;9158;51.528;7.192;2023-05-07T02:14:39;14.40;99.90
18067;DHT22;9158;51.528;7.192;2023-05-07T02:15:10;14.40;99.90
18067;DHT22;9158;51.528;7.192;2023-05-07T02:16:13;14.40;99.90
18067;DHT22;9158;51.528;7.192;2023-05-07T02:16:45;14.40;99.90
18067;DHT22;9158;51.528;7.192;2023-05-07T02:17:18;14.40;99.90
18067;DHT22;9158;51.528;7.192;2023-05-07T02:17:59;14.40;99.90
18067;DHT22;9158;51.528;7.192;2023-05-07T02:18:31;14.40;99.90
18067;DHT22;9158;51.528;7.192;2023-05-07T02:19:03;14.40;99.90
18067;DHT22;9158;51.528;7.192;2023-05-07T02:19:34;14.40;99.90
18067;DHT22;9158;51.528;7.192;2023-05-07T02:20:07;14.40;99.90
18067;DHT22;9158;51.528;7.192;2023-05-07T02:20:45;14.40;99.90
18067;DHT22;9158;51.528;7.192;2023-05-07T02:21:18;14.30;99.90
18067;DHT22;9158;51.528;7.192;2023-05-07T02:21:49;14.30;99.90
18067;DHT22;9158;51.528;7.192;2023-05-07T02:22:20;14.30;99.90
18067;DHT22;9158;51.528;7.192;2023-05-07T02:22:52;14.30;99.90
18067;DHT22;9158;51.528;7.192;2023-05-07T02:23:24;14.30;99.90
18067;DHT22;9158;51.528;7.192;2023-05-07T02:24:59;14.30;99.90
18067;DHT22;9158;51.528;7.192;2023-05-07T02:25:30;14.30;99.90
18067;DHT22;9158;51.528;7.192;2023-05-07T02:26:01;14.20;99.90
18067;DHT22;9158;51.528;7.192;2023-05-07T02:26:33;14.20;99.90
18067;DHT22;9158;51.528;7.192;2023-05-07T02:27:05;14.20;99.90
18067;DHT22;9158;51.528;7.192;2023-05-07T02:27:36;14.20;99.90
18067;DHT22;9158;51.528;7.192;2023-05-07T02:28:07;14.20;99.90
18067;DHT22;9158;51.528;7.192;2023-05-07T02:28:50;14.10;99.90
18067;DHT22;9158;51.528;7.192;2023-05-07T02:29:22;14.10;99.90
18067;DHT22;9158;51.528;7.192;2023-05-07T02:30:26;14.20;99.90
18067;DHT22;9158;51.528;7.192;2023-05-07T02:30:59;14.10;99.90
18067;DHT22;9158;51.528;7.192;2023-05-07T02:31:31;14.10;99.90
18067;DHT22;9158;51.528;7.192;2023-05-07T02:32:04;14.10;99.90
18067;DHT22;9158;51.528;7.192;2023-05-07T02:32:35;14.10;99.90
18067;DHT22;9158;51.528;7.192;2023-05-07T02:33:06;14.00;99.90
18067;DHT22;9158;51.528;7.192;2023-05-07T02:33:39;14.00;99.90
18067;DHT22;9158;51.528;7.192;2023-05-07T02:34:12;14.00;99.90
18067;DHT22;9158;51.528;7.192;2023-05-07T02:34:43;14.00;99.90
18067;DHT22;9158;51.528;7.192;2023-05-07T02:35:15;14.00;99.90
18067;DHT22;9158;51.528;7.192;2023-05-07T02:35:46;14.00;99.90
18067;DHT22;9158;51.528;7.192;2023-05-07T02:36:19;14.00;99.90
18067;DHT22;9158;51.528;7.192;2023-05-07T02:36:57;14.00;99.90
18067;DHT22;9158;51.528;7.192;2023-05-07T02:37:30;14.00;99.90
18067;DHT22;9158;51.528;7.192;2023-05-07T02:38:01;14.00;99.90
18067;DHT22;9158;51.528;7.192;2023-05-07T02:38:34;14.00;99.90
18067;DHT22;9158;51.528;7.192;2023-05-07T02:39:06;14.00;99.90
18067;DHT22;9158;51.528;7.192;2023-05-07T02:39:36;14.00;99.90
18067;DHT22;9158;51.528;7.192;2023-05-07T02:40:09;14.00;99.90
18067;DHT22;9158;51.528;7.192;2023-05-07T02:40:41;13.90;99.90
18067;DHT22;9158;51.528;7.192;2023-05-07T02:41:12;13.90;99.90
18067;DHT22;9158;51.528;7.192;2023-05-07T02:41:43;13.80;99.90
18067;DHT22;9158;51.528;7.192;2023-05-07T02:42:15;14.00;99.90
18067;DHT22;9158;51.528;7.192;2023-05-07T02:42:45;14.00;99.90
18067;DHT22;9158;51.528;7.192;2023-05-07T02:43:16;14.10;99.90
18067;DHT22;9158;51.528;7.192;2023-05-07T02:43:50;15.30;99.90
18067;DHT22;9158;51.528;7.192;2023-05-07T02:44:22;14.10;99.90
18067;DHT22;9158;51.528;7.192;2023-05-07T02:44:55;14.10;99.90
18067;DHT22;9158;51.528;7.192;2023-05-07T02:45:26;14.00;99.90
18067;DHT22;9158;51.528;7.192;2023-05-07T02:46:03;14.00;99.90
18067;DHT22;9158;51.528;7.192;2023-05-07T02:46:34;14.00;99.90
18067;DHT22;9158;51.528;7.192;2023-05-07T02:47:08;14.00;99.90
18067;DHT22;9158;51.528;7.192;2023-05-07T02:47:41;14.00;99.90
18067;DHT22;9158;51.528;7.192;2023-05-07T02:48:12;13.90;99.90
18067;DHT22;9158;51.528;7.192;2023-05-07T02:48:43;13.90;99.90
18067;DHT22;9158;51.528;7.192;2023-05-07T02:49:15;14.00;99.90
18067;DHT22;9158;51.528;7.192;2023-05-07T02:49:46;14.00;99.90
18067;DHT22;9158;51.528;7.192;2023-05-07T02:50:18;14.00;99.90
18067;DHT22;9158;51.528;7.192;2023-05-07T02:50:49;14.10;99.90
18067;DHT22;9158;51.528;7.192;2023-05-07T02:51:21;14.10;99.90
18067;DHT22;9158;51.528;7.192;2023-05-07T02:52:27;14.10;99.90
18067;DHT22;9158;51.528;7.192;2023-05-07T02:52:59;14.20;99.90
18067;DHT22;9158;51.528;7.192;2023-05-07T02:53:30;14.10;99.90
18067;DHT22;9158;51.528;7.192;2023-05-07T02:54:03;14.10;99.90
18067;DHT22;9158;51.528;7.192;2023-05-07T02:54:36;14.10;99.90
18067;DHT22;9158;51.528;7.192;2023-05-07T02:55:08;14.10;99.90
18067;DHT22;9158;51.528;7.192;2023-05-07T02:56:11;14.10;99.90
18067;DHT22;9158;51.528;7.192;2023-05-07T02:56:42;14.10;99.90
18067;DHT22;9158;51.528;7.192;2023-05-07T02:57:13;14.10;99.90
18067;DHT22;9158;51.528;7.192;2023-05-07T02:57:44;14.20;99.90
18067;DHT22;9158;51.528;7.192;2023-05-07T02:58:16;14.10;99.90
18067;DHT22;9158;51.528;7.192;2023-05-07T02:58:47;14.10;99.90
18067;DHT22;9158;51.528;7.192;2023-05-07T02:59:19;14.10;99.90
18067;DHT22;9158;51.528;7.192;2023-05-07T02:59:51;14.10;99.90
18067;DHT22;9158;51.528;7.192;2023-05-07T03:00:24;14.00;99.90
18067;DHT22;9158;51.528;7.192;2023-05-07T03:01:05;14.10;99.90
18067;DHT22;9158;51.528;7.192;2023-05-07T03:01:49;14.10;99.90
18067;DHT22;9158;51.528;7.192;2023-05-07T03:02:20;14.20;99.90
18067;DHT22;9158;51.528;7.192;2023-05-07T03:02:51;14.20;99.90
18067;DHT22;9158;51.528;7.192;2023-05-07T03:03:23;14.10;99.90
18067;DHT22;9158;51.528;7.192;2023-05-07T03:03:54;14.20;99.90
18067;DHT22;9158;51.528;7.192;2023-05-07T03:04:26;14.20;99.90
18067;DHT22;9158;51.528;7.192;2023-05-07T03:04:58;14.20;99.90
18067;DHT22;9158;51.528;7.192;2023-05-07T03:05:29;12.10;99.90
18067;DHT22;9158;51.528;7.192;2023-05-07T03:06:00;14.10;99.90
18067;DHT22;9158;51.528;7.192;2023-05-07T03:06:32;14.10;99.90
18067;DHT22;9158;51.528;7.192;2023-05-07T03:07:03;14.10;99.90
18067;DHT22;9158;51.528;7.192;2023-05-07T03:07:34;14.10;99.90
18067;DHT22;9158;51.528;7.192;2023-05-07T03:08:05;14.20;99.90
18067;DHT22;9158;51.528;7.192;2023-05-07T03:08:37;14.20;99.90
18067;DHT22;9158;51.528;7.192;2023-05-07T03:09:09;14.20;99.90
18067;DHT22;9158;51.528;7.192;2023-05-07T03:09:41;14.10;99.90
18067;DHT22;9158;51.528;7.192;2023-05-07T03:10:13;14.20;99.90
18067;DHT22;9158;51.528;7.192;2023-05-07T03:10:44;14.20;99.90
18067;DHT22;9158;51.528;7.192;2023-05-07T03:11:15;14.20;99.90
18067;DHT22;9158;51.528;7.192;2023-05-07T03:11:47;14.20;99.90
18067;DHT22;9158;51.528;7.192;2023-05-07T03:12:18;14.20;99.90
18067;DHT22;9158;51.528;7.192;2023-05-07T03:12:49;14.10;99.90
18067;DHT22;9158;51.528;7.192;2023-05-07T03:13:22;14.20;99.90
18067;DHT22;9158;51.528;7.192;2023-05-07T03:13:53;14.10;99.90
18067;DHT22;9158;51.528;7.192;2023-05-07T03:14:25;14.10;99.90
18067;DHT22;9158;51.528;7.192;2023-05-07T03:14:56;14.10;99.90
18067;DHT22;9158;51.528;7.192;2023-05-07T03:15:28;14.10;99.90
18067;DHT22;9158;51.528;7.192;2023-05-07T03:15:59;14.10;99.90
18067;DHT22;9158;51.528;7.192;2023-05-07T03:16:30;14.10;99.90
18067;DHT22;9158;51.528;7.192;2023-05-07T03:17:01;14.10;99.90
18067;DHT22;9158;51.528;7.192;2023-05-07T03:17:32;14.00;99.90
18067;DHT22;9158;51.528;7.192;2023-05-07T03:18:03;14.00;99.90
18067;DHT22;9158;51.528;7.192;2023-05-07T03:18:34;14.00;99.90
18067;DHT22;9158;51.528;7.192;2023-05-07T03:19:06;14.00;99.90
18067;DHT22;9158;51.528;7.192;2023-05-07T03:20:09;14.00;99.90
18067;DHT22;9158;51.528;7.192;2023-05-07T03:20:41;14.00;99.90
18067;DHT22;9158;51.528;7.192;2023-05-07T03:21:13;14.00;99.90
18067;DHT22;9158;51.528;7.192;2023-05-07T03:21:44;14.00;99.90
18067;DHT22;9158;51.528;7.192;2023-05-07T03:22:15;14.00;99.90
18067;DHT22;9158;51.528;7.192;2023-05-07T03:22:47;14.10;99.90
18067;DHT22;9158;51.528;7.192;2023-05-07T03:23:18;14.10;99.90
18067;DHT22;9158;51.528;7.192;2023-05-07T03:23:49;14.10;99.90
18067;DHT22;9158;51.528;7.192;2023-05-07T03:24:22;14.10;99.90
18067;DHT22;9158;51.528;7.192;2023-05-07T03:24:53;14.00;99.90
18067;DHT22;9158;51.528;7.192;2023-05-07T03:25:24;14.00;99.90
18067;DHT22;9158;51.528;7.192;2023-05-07T03:26:27;14.10;99.90
18067;DHT22;9158;51.528;7.192;2023-05-07T03:26:58;14.10;99.90
18067;DHT22;9158;51.528;7.192;2023-05-07T03:27:32;14.10;99.90
18067;DHT22;9158;51.528;7.192;2023-05-07T03:28:03;14.10;99.90
18067;DHT22;9158;51.528;7.192;2023-05-07T03:28:43;14.10;99.90
18067;DHT22;9158;51.528;7.192;2023-05-07T03:29:17;14.10;99.90
18067;DHT22;9158;51.528;7.192;2023-05-07T03:29:48;14.00;99.90
18067;DHT22;9158;51.528;7.192;2023-05-07T03:30:52;14.00;99.90
18067;DHT22;9158;51.528;7.192;2023-05-07T03:31:23;13.90;99.90
18067;DHT22;9158;51.528;7.192;2023-05-07T03:31:54;13.90;99.90
18067;DHT22;9158;51.528;7.192;2023-05-07T03:32:26;13.90;99.90
18067;DHT22;9158;51.528;7.192;2023-05-07T03:32:57;13.90;99.90
18067;DHT22;9158;51.528;7.192;2023-05-07T03:33:28;13.80;99.90
18067;DHT22;9158;51.528;7.192;2023-05-07T03:34:00;13.90;99.90
18067;DHT22;9158;51.528;7.192;2023-05-07T03:34:31;13.90;99.90
18067;DHT22;9158;51.528;7.192;2023-05-07T03:35:02;13.90;99.90
18067;DHT22;9158;51.528;7.192;2023-05-07T03:35:35;13.90;99.90